Ufo 3 — IUNV — position and weather

sailwx.info

Track history (hours):
 
Tides and Currents Weather Stations Pressure Air Temp Water Temp Dewpoint Dewpoint Depression Visibility Wind Speed Wind Dir Waves Ship Positions

Ufo 3

Last reported at 2014-Aug-22 09:33 UTC. Time now 2014-Aug-22 23:41 UTC.
Position N 44°17' E 009°13'.

Length 28 m.

Type: Passenger vessel. MMSI: 247031600.

Date/timePositionNaut miles runAvg speedWind from/ knotsBaromVisibWave heightAir tempDewpointWater temp
2014-Aug-22 09:33N 44°17' E 009°13'2511.4
2014-Aug-22 07:23N 44°06' E 009°44'8 9.3
2014-Aug-22 06:34N 44°04' E 009°55'3 3.1
2014-Aug-22 05:33N 44°03' E 009°51'0 0.0
2014-Aug-21 16:08N 44°03' E 009°51'3 5.1
2014-Aug-21 15:33N 44°05' E 009°54'3 3.2
2014-Aug-21 14:33N 44°03' E 009°50'3 3.4
2014-Aug-21 13:33N 44°04' E 009°55'0 0.0
2014-Aug-21 12:33N 44°04' E 009°54'0 0.0
2014-Aug-21 11:33N 44°04' E 009°55'3 3.2
2014-Aug-21 10:34N 44°03' E 009°51'3 2.7
2014-Aug-21 09:33N 44°04' E 009°54'7 0.3
2014-Aug-20 08:27N 44°06' E 009°44'5 6.1
2014-Aug-20 07:33N 44°04' E 009°51'1 1.1
2014-Aug-20 06:33N 44°03' E 009°51'0 0.0
2014-Aug-19 16:17N 44°03' E 009°51'10 8.7
2014-Aug-19 15:11N 44°08' E 009°40'3 3.5
2014-Aug-19 14:24N 44°06' E 009°42'7 8.1
2014-Aug-19 13:33N 44°03' E 009°51'0 0.3
2014-Aug-19 12:33N 44°03' E 009°50'0 0.0
2014-Aug-19 11:33N 44°03' E 009°50'0 0.0
2014-Aug-19 10:33N 44°03' E 009°50'0 0.3
2014-Aug-19 09:33N 44°03' E 009°51'5 4.9
2014-Aug-19 08:33N 44°02' E 009°57'6 6.3
2014-Aug-19 07:33N 44°00' E 010°06'9 9.4
2014-Aug-19 06:33N 44°03' E 009°53'2 0.1
2014-Aug-18 17:07N 44°03' E 009°51'1 2.3
2014-Aug-18 16:34N 44°04' E 009°52'1 1.4
2014-Aug-18 15:34N 44°04' E 009°54'3 3.0
2014-Aug-18 14:33N 44°03' E 009°50'0 0.0
2014-Aug-18 13:33N 44°03' E 009°50'0 0.0
2014-Aug-18 12:33N 44°03' E 009°50'0 0.0
2014-Aug-18 11:33N 44°03' E 009°50'0 0.0
2014-Aug-18 10:33N 44°03' E 009°50'3 3.1
2014-Aug-18 09:33N 44°06' E 009°50'3 2.5
2014-Aug-18 08:33N 44°04' E 009°51'2 1.6
2014-Aug-18 07:34N 44°02' E 009°51'1 0.9
2014-Aug-18 06:33N 44°03' E 009°50'0 0.0
2014-Aug-17 18:33N 44°03' E 009°50'3 3.3
2014-Aug-17 17:33N 44°04' E 009°55'0 0.0
2014-Aug-17 16:33N 44°04' E 009°55'1 1.0
2014-Aug-17 15:34N 44°04' E 009°53'11 3.4
2014-Aug-17 12:21N 44°09' E 009°39'0 0.0
2014-Aug-17 11:18N 44°09' E 009°39'3 3.3
2014-Aug-17 10:19N 44°07' E 009°43'1 0.6
2014-Aug-17 08:27N 44°06' E 009°44'5 6.1
2014-Aug-17 07:33N 44°04' E 009°51'1 1.1
2014-Aug-17 06:33N 44°03' E 009°51'0 0.1
2014-Aug-17 05:33N 44°03' E 009°51'0 0.0
2014-Aug-16 16:12N 44°03' E 009°51'2 3.8
2014-Aug-16 15:34N 44°05' E 009°50'1 0.9
2014-Aug-16 14:34N 44°06' E 009°50'3 3.0
2014-Aug-16 13:33N 44°03' E 009°50'0 0.0
2014-Aug-16 12:33N 44°03' E 009°50'0 0.0
2014-Aug-16 11:33N 44°03' E 009°50'0 0.0
2014-Aug-16 10:33N 44°03' E 009°50'1 1.3
2014-Aug-16 09:34N 44°04' E 009°51'1 0.6
2014-Aug-16 08:33N 44°04' E 009°51'2 1.8
2014-Aug-16 07:33N 44°05' E 009°50'2 2.3
2014-Aug-16 06:34N 44°03' E 009°51'0 0.0
2014-Aug-15 15:11N 44°03' E 009°51'0 0.7
2014-Aug-15 14:34N 44°03' E 009°50'0 0.3
2014-Aug-15 13:34N 44°03' E 009°51'0 0.3
2014-Aug-15 12:33N 44°03' E 009°50'0 0.0
2014-Aug-15 11:33N 44°03' E 009°50'0 0.0
2014-Aug-15 10:33N 44°03' E 009°50'0 0.0
2014-Aug-15 09:33N 44°03' E 009°50'0 0.0
2014-Aug-15 08:33N 44°03' E 009°50'0 0.4
2014-Aug-15 07:33N 44°03' E 009°51'0 0.0
2014-Aug-15 06:33N 44°03' E 009°51'0 0.0
2014-Aug-14 16:11N 44°03' E 009°51'2 3.7
2014-Aug-14 15:34N 44°04' E 009°53'3 2.6
2014-Aug-14 14:33N 44°03' E 009°50'3 3.4
2014-Aug-14 13:34N 44°04' E 009°55'0 0.1
2014-Aug-14 12:34N 44°04' E 009°54'0 0.2
2014-Aug-14 11:34N 44°04' E 009°55'3 3.3
2014-Aug-14 10:33N 44°03' E 009°50'3 3.1
2014-Aug-14 09:33N 44°05' E 009°54'0 0.2
2014-Aug-14 08:33N 44°04' E 009°55'3 3.1
2014-Aug-14 07:33N 44°03' E 009°51'0 0.0
2014-Aug-13 09:32N 44°03' E 009°51'10 8.1
2014-Aug-13 08:17N 44°09' E 009°39'0 0.1
2014-Aug-13 07:28N 44°09' E 009°39'1010.9
2014-Aug-13 06:33N 44°03' E 009°51'2 0.1
2014-Aug-12 15:33N 44°04' E 009°48'2 1.8
2014-Aug-12 14:33N 44°03' E 009°50'5 5.4
2014-Aug-12 13:33N 44°06' E 009°44'0 0.1
2014-Aug-12 10:33N 44°06' E 009°44'8 7.9
2014-Aug-12 09:33N 44°04' E 009°55'  
Track history (hours):
 
Tides and Currents Weather Stations Pressure Air Temp Water Temp Dewpoint Dewpoint Depression Visibility Wind Speed Wind Dir Waves Ship Positions

Ufo 3

Last reported at 2014-Aug-22 09:33 UTC. Time now 2014-Aug-22 23:41 UTC.
Position N 44°17' E 009°13'.

Length 28 m.

Type: Passenger vessel. MMSI: 247031600.

Date/timePositionNaut miles runAvg speedWind from/ knotsBaromVisibWave heightAir tempDewpointWater temp
2014-Aug-22 09:33N 44°17' E 009°13'2511.4
2014-Aug-22 07:23N 44°06' E 009°44'8 9.3
2014-Aug-22 06:34N 44°04' E 009°55'3 3.1
2014-Aug-22 05:33N 44°03' E 009°51'0 0.0
2014-Aug-21 16:08N 44°03' E 009°51'3 5.1
2014-Aug-21 15:33N 44°05' E 009°54'3 3.2
2014-Aug-21 14:33N 44°03' E 009°50'3 3.4
2014-Aug-21 13:33N 44°04' E 009°55'0 0.0
2014-Aug-21 12:33N 44°04' E 009°54'0 0.0
2014-Aug-21 11:33N 44°04' E 009°55'3 3.2
2014-Aug-21 10:34N 44°03' E 009°51'3 2.7
2014-Aug-21 09:33N 44°04' E 009°54'7 0.3
2014-Aug-20 08:27N 44°06' E 009°44'5 6.1
2014-Aug-20 07:33N 44°04' E 009°51'1 1.1
2014-Aug-20 06:33N 44°03' E 009°51'0 0.0
2014-Aug-19 16:17N 44°03' E 009°51'10 8.7
2014-Aug-19 15:11N 44°08' E 009°40'3 3.5
2014-Aug-19 14:24N 44°06' E 009°42'7 8.1
2014-Aug-19 13:33N 44°03' E 009°51'0 0.3
2014-Aug-19 12:33N 44°03' E 009°50'0 0.0
2014-Aug-19 11:33N 44°03' E 009°50'0 0.0
2014-Aug-19 10:33N 44°03' E 009°50'0 0.3
2014-Aug-19 09:33N 44°03' E 009°51'5 4.9
2014-Aug-19 08:33N 44°02' E 009°57'6 6.3
2014-Aug-19 07:33N 44°00' E 010°06'9 9.4
2014-Aug-19 06:33N 44°03' E 009°53'2 0.1
2014-Aug-18 17:07N 44°03' E 009°51'1 2.3
2014-Aug-18 16:34N 44°04' E 009°52'1 1.4
2014-Aug-18 15:34N 44°04' E 009°54'3 3.0
2014-Aug-18 14:33N 44°03' E 009°50'0 0.0
2014-Aug-18 13:33N 44°03' E 009°50'0 0.0
2014-Aug-18 12:33N 44°03' E 009°50'0 0.0
2014-Aug-18 11:33N 44°03' E 009°50'0 0.0
2014-Aug-18 10:33N 44°03' E 009°50'3 3.1
2014-Aug-18 09:33N 44°06' E 009°50'3 2.5
2014-Aug-18 08:33N 44°04' E 009°51'2 1.6
2014-Aug-18 07:34N 44°02' E 009°51'1 0.9
2014-Aug-18 06:33N 44°03' E 009°50'0 0.0
2014-Aug-17 18:33N 44°03' E 009°50'3 3.3
2014-Aug-17 17:33N 44°04' E 009°55'0 0.0
2014-Aug-17 16:33N 44°04' E 009°55'1 1.0
2014-Aug-17 15:34N 44°04' E 009°53'11 3.4
2014-Aug-17 12:21N 44°09' E 009°39'0 0.0
2014-Aug-17 11:18N 44°09' E 009°39'3 3.3
2014-Aug-17 10:19N 44°07' E 009°43'1 0.6
2014-Aug-17 08:27N 44°06' E 009°44'5 6.1
2014-Aug-17 07:33N 44°04' E 009°51'1 1.1
2014-Aug-17 06:33N 44°03' E 009°51'0 0.1
2014-Aug-17 05:33N 44°03' E 009°51'0 0.0
2014-Aug-16 16:12N 44°03' E 009°51'2 3.8
2014-Aug-16 15:34N 44°05' E 009°50'1 0.9
2014-Aug-16 14:34N 44°06' E 009°50'3 3.0
2014-Aug-16 13:33N 44°03' E 009°50'0 0.0
2014-Aug-16 12:33N 44°03' E 009°50'0 0.0
2014-Aug-16 11:33N 44°03' E 009°50'0 0.0
2014-Aug-16 10:33N 44°03' E 009°50'1 1.3
2014-Aug-16 09:34N 44°04' E 009°51'1 0.6
2014-Aug-16 08:33N 44°04' E 009°51'2 1.8
2014-Aug-16 07:33N 44°05' E 009°50'2 2.3
2014-Aug-16 06:34N 44°03' E 009°51'0 0.0
2014-Aug-15 15:11N 44°03' E 009°51'0 0.7
2014-Aug-15 14:34N 44°03' E 009°50'0 0.3
2014-Aug-15 13:34N 44°03' E 009°51'0 0.3
2014-Aug-15 12:33N 44°03' E 009°50'0 0.0
2014-Aug-15 11:33N 44°03' E 009°50'0 0.0
2014-Aug-15 10:33N 44°03' E 009°50'0 0.0
2014-Aug-15 09:33N 44°03' E 009°50'0 0.0
2014-Aug-15 08:33N 44°03' E 009°50'0 0.4
2014-Aug-15 07:33N 44°03' E 009°51'0 0.0
2014-Aug-15 06:33N 44°03' E 009°51'0 0.0
2014-Aug-14 16:11N 44°03' E 009°51'2 3.7
2014-Aug-14 15:34N 44°04' E 009°53'3 2.6
2014-Aug-14 14:33N 44°03' E 009°50'3 3.4
2014-Aug-14 13:34N 44°04' E 009°55'0 0.1
2014-Aug-14 12:34N 44°04' E 009°54'0 0.2
2014-Aug-14 11:34N 44°04' E 009°55'3 3.3
2014-Aug-14 10:33N 44°03' E 009°50'3 3.1
2014-Aug-14 09:33N 44°05' E 009°54'0 0.2
2014-Aug-14 08:33N 44°04' E 009°55'3 3.1
2014-Aug-14 07:33N 44°03' E 009°51'0 0.0
2014-Aug-13 09:32N 44°03' E 009°51'10 8.1
2014-Aug-13 08:17N 44°09' E 009°39'0 0.1
2014-Aug-13 07:28N 44°09' E 009°39'1010.9
2014-Aug-13 06:33N 44°03' E 009°51'2 0.1
2014-Aug-12 15:33N 44°04' E 009°48'2 1.8
2014-Aug-12 14:33N 44°03' E 009°50'5 5.4
2014-Aug-12 13:33N 44°06' E 009°44'0 0.1
2014-Aug-12 10:33N 44°06' E 009°44'8 7.9
2014-Aug-12 09:33N 44°04' E 009°55'  

Dump ship's entire track history